Data for 07/21/2013

Time Sea-Level Adjusted Pressure Absolute Pressure Temperature Relative Humidity Dew Point   
(mb) (inHg) (mb) (inHg) (C) (F) (%) (C) (F)
00:05 1016 30 845 24.95 16.1 60.9 36 1.2 34.2
00:10 1016 30 845 24.95 15.8 60.5 35 0.5 32.8
00:15 1016 30 845 24.95 16.1 61 39 2.3 36.1
00:20 1016 30 845 24.95 16 60.9 35 0.8 33.4
00:25 1016 30 845 24.95 16.1 61 34 0.3 32.5
00:30 1016 30 846 24.98 16.4 61.4 33 0 32.1
00:35 1016 30 846 24.98 16.5 61.8 32 -0.1 31.8
00:40 1016 30 846 24.98 16.9 62.3 33 0.7 33.3
00:45 1016 30 845 24.95 17 62.5 31 -0.1 31.8
00:50 1016 30 845 24.95 16.8 62.3 31 -0.3 31.4
00:55 1016 30 845 24.95 16.8 62.2 31 -0.3 31.5
01:00 1016 30 845 24.95 16.6 61.8 31 -0.3 31.4
01:05 1016 30 845 24.95 16.4 61.6 31 -0.6 30.9
01:10 1016 30 845 24.95 16.6 61.8 30 -0.8 30.6
01:15 1016 30 845 24.95 16.7 62.1 30 -0.8 30.6
01:20 1016 30 845 24.95 16.6 61.8 32 -0.3 31.5
01:25 1016 30 845 24.95 16.4 61.5 30 -0.9 30.3
01:30 1016 30 845 24.95 16.4 61.5 32 -0.2 31.6
01:35 1016 30 845 24.95 16.4 61.6 30 -0.9 30.3
01:40 1016 30 845 24.95 16.3 61.4 31 -0.6 30.9
01:45 1016 30 845 24.95 16.1 61 33 -0.2 31.7
01:50 1016 30 845 24.95 15.5 59.9 35 0.3 32.5
01:55 1016 30 845 24.95 15.4 59.8 34 -0.2 31.7
02:00 1016 30 846 24.98 15.6 60 38 1.5 34.6
02:05 1016 30 845 24.95 15.7 60.2 34 0.2 32.3
02:10 1016 30 846 24.98 15.4 59.7 34 -0.3 31.5
02:15 1016 30 846 24.98 15.8 60.4 29 -1.9 28.5
02:20 1016 30 845 24.95 16.3 61.4 31 -0.8 30.5
02:25 1016 30 845 24.95 16.1 60.9 31 -0.9 30.3
02:30 1016 30 846 24.98 15.8 60.4 32 -1 30.3
02:35 1016 30 846 24.98 15.7 60.3 30 -1.5 29.4
02:40 1016 30 846 24.98 15.8 60.5 32 -0.8 30.5
02:45 1016 30 846 24.98 15.6 60.1 32 -1.1 30.1
02:50 1016 30 846 24.98 15.5 59.9 32 -1 30.2
02:55 1016 30 846 24.98 15.4 59.7 35 0.3 32.5
03:00 1016 30 846 24.98 15.3 59.5 33 -0.8 30.6
03:05 1016 30 846 24.98 15.5 59.8 33 -0.8 30.6
03:10 1017 30.03 846 24.98 15.4 59.6 34 -0.2 31.7
03:15 1017 30.03 846 24.98 15 59 36 0 32
03:20 1017 30.03 846 24.98 14.6 58.3 37 0.3 32.6
03:25 1017 30.03 846 24.98 14.1 57.4 40 0.7 33.3
03:30 1017 30.03 846 24.98 13.6 56.6 40 0.4 32.8
03:35 1017 30.03 846 24.98 13.6 56.6 39 0 32
03:40 1017 30.03 846 24.98 13.8 56.9 37 -0.5 31.1
03:45 1017 30.03 846 24.98 14.1 57.4 36 -0.5 31.1
03:50 1017 30.03 846 24.98 14.3 57.8 36 -0.5 31
03:55 1017 30.03 846 24.98 14.3 57.8 36 -0.5 31.1
04:00 1017 30.03 846 24.98 14.3 57.7 36 -0.4 31.3
04:05 1017 30.03 846 24.98 14.3 57.7 36 -0.5 31.1
04:10 1017 30.03 846 24.98 14.3 57.7 36 -0.5 31
04:15 1017 30.03 846 24.98 14.3 57.7 37 -0.2 31.6
04:20 1017 30.03 846 24.98 14.1 57.3 37 -0.3 31.5
04:25 1017 30.03 846 24.98 14.2 57.6 36 -0.6 30.9
04:30 1017 30.03 846 24.98 14.3 57.7 35 -0.7 30.7
04:35 1017 30.03 846 24.98 14.4 58 35 -0.6 30.9
04:40 1017 30.03 846 24.98 14.2 57.6 37 -0.3 31.5
04:45 1017 30.03 846 24.98 14.1 57.3 38 0.2 32.3
04:50 1017 30.03 846 24.98 13.6 56.4 41 0.6 33
04:55 1017 30.03 846 24.98 13.3 55.9 41 0.5 32.8
05:00 1017 30.03 846 24.98 13.2 55.8 41 0.3 32.5
05:05 1017 30.03 846 24.98 13.2 55.8 40 -0.1 31.9
05:10 1017 30.03 846 24.98 13.5 56.3 39 -0 31.9
05:15 1017 30.03 846 24.98 13.7 56.6 38 -0.4 31.3
05:20 1017 30.03 847 25.01 13.7 56.7 39 -0.1 31.9
05:25 1017 30.03 847 25.01 13.9 57 38 -0.3 31.5
05:30 1017 30.03 847 25.01 14.1 57.4 37 -0.3 31.5
05:35 1017 30.03 847 25.01 14.1 57.3 37 -0.2 31.7
05:40 1017 30.03 847 25.01 14 57.1 38 -0 31.9
05:45 1017 30.03 847 25.01 14.1 57.4 37 -0.1 31.8
05:50 1017 30.03 847 25.01 14.3 57.8 37 -0.1 31.9
05:55 1017 30.03 847 25.01 14.4 57.9 38 0.2 32.4
06:00 1018 30.06 847 25.01 14.4 57.8 39 0.5 33
06:05 1018 30.06 847 25.01 14.4 57.9 39 0.6 33.1
06:10 1018 30.06 847 25.01 14.6 58.2 38 0.3 32.6
06:15 1018 30.06 847 25.01 15.1 59.2 36 0.2 32.4
06:20 1018 30.06 847 25.01 15.3 59.5 37 0.8 33.4
06:25 1018 30.06 847 25.01 15.4 59.8 36 0.6 33.1
06:30 1018 30.06 847 25.01 15.6 60.1 37 1.2 34.1
06:35 1018 30.06 847 25.01 16.1 61 37 1.4 34.5
06:40 1018 30.06 847 25.01 16.5 61.7 35 1.2 34.2
06:45 1018 30.06 847 25.01 16.9 62.4 35 1.3 34.4
06:50 1018 30.06 847 25.01 17.3 63.2 33 1 33.7
06:55 1018 30.06 847 25.01 17.8 64 33 1.4 34.5
07:00 1018 30.06 847 25.01 18.2 64.8 33 1.9 35.4
07:05 1018 30.06 847 25.01 18.6 65.4 32 1.8 35.2
07:10 1018 30.06 847 25.01 19.1 66.4 32 2.3 36.2
07:15 1018 30.06 847 25.01 19.5 67.1 33 2.8 37.1
07:20 1018 30.06 847 25.01 19.8 67.6 32 2.8 37
07:25 1018 30.06 847 25.01 20.4 68.7 31 2.7 36.9
07:30 1018 30.06 847 25.01 20.2 68.4 32 3.1 37.5
07:35 1018 30.06 847 25.01 20.7 69.2 32 3.6 38.5
07:40 1018 30.06 847 25.01 21.4 70.5 29 2.6 36.7
07:45 1018 30.06 847 25.01 21.7 71 29 2.9 37.2
07:50 1018 30.06 847 25.01 21.5 70.7 29 2.9 37.3
07:55 1018 30.06 847 25.01 21.5 70.7 29 2.9 37.2
08:00 1018 30.06 847 25.01 22.3 72.2 27 2.8 37
08:05 1018 30.06 847 25.01 23 73.4 27 3.4 38.1
08:10 1018 30.06 847 25.01 23.1 73.5 27 3.1 37.7
08:15 1018 30.06 847 25.01 23.2 73.7 28 3.8 38.9
08:20 1018 30.06 847 25.01 23.5 74.4 28 4.4 39.9
08:25 1018 30.06 847 25.01 23.4 74.2 29 4.7 40.5
08:30 1018 30.06 847 25.01 23.6 74.5 29 4.8 40.6
08:35 1018 30.06 847 25.01 24 75.3 26 3.5 38.2
08:40 1018 30.06 847 25.01 23.8 74.9 25 2.6 36.6
08:45 1018 30.06 847 25.01 23.6 74.5 21 -0 32
08:50 1018 30.06 847 25.01 23.6 74.4 20 -0.4 31.2
08:55 1018 30.06 847 25.01 23.7 74.6 21 0.2 32.4
09:00 1018 30.06 847 25.01 24.1 75.3 18 -1.3 29.7
09:05 1018 30.06 847 25.01 24 75.2 17 -2.4 27.7
09:10 1018 30.06 847 25.01 24 75.3 15 -4.3 24.2
09:15 1018 30.06 847 25.01 24.4 75.8 15 -3.7 25.4
09:20 1018 30.06 847 25.01 24.5 76.1 14 -4.3 24.3
09:25 1018 30.06 847 25.01 24.7 76.4 15 -3.3 26
09:30 1018 30.06 847 25.01 24.7 76.5 17 -2.1 28.2
09:35 1018 30.06 847 25.01 25 76.9 17 -1.6 29
09:40 1018 30.06 847 25.01 25.1 77.3 15 -3 26.5
09:45 1018 30.06 847 25.01 25.7 78.2 15 -3 26.6
09:50 1018 30.06 847 25.01 24.8 76.7 16 -2.8 26.9
09:55 1018 30.06 847 25.01 24.6 76.2 16 -2.7 27.2
10:00 1018 30.06 847 25.01 25 77 16 -2.6 27.3
10:05 1018 30.06 847 25.01 25.2 77.4 17 -1.1 30.1
10:10 1018 30.06 847 25.01 25 77 17 -1.1 30
10:15 1018 30.06 847 25.01 25.1 77.1 15 -2.8 26.9
10:20 1018 30.06 847 25.01 25.6 78.1 16 -1.9 28.6
10:25 1018 30.06 847 25.01 26 78.8 15 -2.2 28.1
10:30 1018 30.06 847 25.01 25.5 78 15 -3.1 26.5
10:35 1018 30.06 847 25.01 25.8 78.5 15 -2.4 27.7
10:40 1018 30.06 847 25.01 25.7 78.2 16 -2 28.5
10:45 1018 30.06 847 25.01 25.7 78.2 14 -3.6 25.5
10:50 1018 30.06 847 25.01 26 78.7 14 -3.1 26.5
10:55 1018 30.06 847 25.01 26.7 80.1 13 -3.3 26.1
11:00 1018 30.06 847 25.01 26.3 79.3 13 -3.7 25.4
11:05 1018 30.06 847 25.01 25.1 77.2 14 -4.3 24.2
11:10 1018 30.06 847 25.01 25.9 78.6 14 -3.8 25.2
11:15 1018 30.06 847 25.01 26.3 79.4 13 -3.9 24.9
11:20 1018 30.06 847 25.01 26.5 79.7 14 -3.1 26.4
11:25 1018 30.06 847 25.01 27.1 80.7 13 -3.9 25
11:30 1018 30.06 847 25.01 27.1 80.8 12 -4 24.8
11:35 1018 30.06 847 25.01 26.7 80 13 -3.4 25.9
11:40 1018 30.06 847 25.01 26.6 79.8 13 -3.9 24.9
11:45 1018 30.06 847 25.01 27.3 81.1 12 -3.8 25.1
11:50 1018 30.06 847 25.01 27.5 81.5 13 -3.1 26.4
11:55 1017 30.03 847 25.01 27.7 81.8 12 -3.9 25
12:00 1017 30.03 847 25.01 28.6 83.4 13 -2.2 28
12:05 1017 30.03 847 25.01 28.5 83.2 13 -2.6 27.3
12:10 1017 30.03 846 24.98 28.6 83.5 14 -1.2 29.8
12:15 1017 30.03 846 24.98 28.6 83.5 12 -3.7 25.3
12:20 1017 30.03 846 24.98 27.1 80.8 13 -3.6 25.5
12:25 1017 30.03 846 24.98 26.9 80.4 13 -3.6 25.5
12:30 1017 30.03 846 24.98 27.6 81.7 12 -4.2 24.5
12:35 1017 30.03 846 24.98 27.9 82.1 11 -4.6 23.7
12:40 1017 30.03 846 24.98 28.5 83.2 11 -4.9 23.2
12:45 1017 30.03 846 24.98 28.9 84 11 -4.4 24.1
12:50 1017 30.03 846 24.98 28.9 84 11 -4 24.9
12:55 1017 30.03 846 24.98 29.2 84.6 11 -3.9 24.9
13:00 1017 30.03 846 24.98 29 84.2 12 -2.6 27.3
13:05 1017 30.03 846 24.98 28.4 83.2 11 -4.1 24.6
13:10 1017 30.03 846 24.98 29.2 84.6 11 -4.2 24.4
13:15 1017 30.03 846 24.98 29.1 84.5 11 -3.6 25.5
13:20 1017 30.03 846 24.98 29.3 84.8 11 -4.4 24.1
13:25 1017 30.03 846 24.98 29.2 84.5 10 -5 23.1
13:30 1017 30.03 846 24.98 29.3 84.7 11 -4.2 24.4
13:35 1017 30.03 846 24.98 29.6 85.2 10 -4.5 24
13:40 1017 30.03 846 24.98 29.5 85.2 10 -5.1 22.8
13:45 1017 30.03 846 24.98 29.5 85 9 -6.1 21
13:50 1017 30.03 846 24.98 29.8 85.7 9 -6 21.2
13:55 1017 30.03 846 24.98 30.1 86.2 9 -5.8 21.6
14:00 1017 30.03 846 24.98 29.9 85.8 9 -6.1 21.1
14:05 1017 30.03 846 24.98 30.2 86.4 9 -5.7 21.7
14:10 1017 30.03 846 24.98 30.4 86.6 10 -5 23
14:15 1017 30.03 846 24.98 30.1 86.2 9 -5.5 22.1
14:20 1017 30.03 846 24.98 29.9 85.9 9 -6 21.3
14:25 1016 30 846 24.98 29.7 85.4 10 -5.5 22.2
14:30 1016 30 846 24.98 29.6 85.3 10 -4.3 24.3
14:35 1016 30 846 24.98 30.6 87 9 -5.1 22.8
14:40 1016 30 845 24.95 30.4 86.6 10 -4.1 24.6
14:45 1016 30 845 24.95 30.3 86.6 10 -4.8 23.3
14:50 1016 30 845 24.95 30.8 87.4 9 -4.9 23.2
14:55 1016 30 845 24.95 30.7 87.2 10 -4.5 24
15:00 1016 30 845 24.95 30.7 87.3 10 -4.2 24.5
15:05 1016 30 845 24.95 30.5 86.9 10 -4.4 24.1
15:10 1016 30 845 24.95 30.6 87 9 -5.2 22.7
15:15 1016 30 845 24.95 29.9 85.8 10 -5.1 22.7
15:20 1016 30 845 24.95 30 86.1 10 -5 23
15:25 1016 30 845 24.95 30.5 87 10 -3.7 25.3
15:30 1016 30 845 24.95 30.3 86.6 10 -4.4 24
15:35 1016 30 845 24.95 30 86 10 -5 22.9
15:40 1016 30 845 24.95 31 87.7 8 -6.1 21
15:45 1016 30 845 24.95 31.6 88.8 8 -5.9 21.3
15:50 1016 30 845 24.95 31.5 88.7 8 -6.1 20.9
15:55 1016 30 845 24.95 31.5 88.6 9 -5.3 22.4
16:00 1016 30 845 24.95 31.6 88.8 9 -5.1 22.8
16:05 1016 30 845 24.95 31.2 88.2 8 -6.7 20
16:10 1016 30 845 24.95 31.1 87.9 8 -6 21.2
16:15 1016 30 845 24.95 31.8 89.2 9 -5.1 22.9
16:20 1016 30 845 24.95 31.8 89.3 8 -6.3 20.7
16:25 1016 30 845 24.95 31.5 88.6 9 -5.3 22.4
16:30 1016 30 845 24.95 31.2 88.2 9 -4.8 23.4
16:35 1016 30 845 24.95 31.3 88.3 9 -5.6 22
16:40 1016 30 845 24.95 31 87.8 9 -5.3 22.4
16:45 1016 30 845 24.95 30.6 87.1 10 -4.8 23.4
16:50 1015 29.97 845 24.95 30.9 87.6 9 -6 21.2
16:55 1015 29.97 845 24.95 31.4 88.5 8 -6.2 20.8
17:00 1015 29.97 845 24.95 31.6 88.8 8 -6.1 21
17:05 1015 29.97 845 24.95 31.6 89 8 -5.9 21.4
17:10 1015 29.97 845 24.95 31.6 88.9 8 -6.4 20.5
17:15 1015 29.97 845 24.95 31.5 88.8 8 -5.7 21.7
17:20 1015 29.97 844 24.92 31.7 89.1 9 -4.9 23.2
17:25 1015 29.97 844 24.92 31.1 88.1 9 -5.9 21.4
17:30 1015 29.97 844 24.92 31.4 88.4 9 -5.6 22
17:35 1015 29.97 844 24.92 31.3 88.4 8 -5.9 21.3
17:40 1015 29.97 844 24.92 31 87.8 9 -5.4 22.2
17:45 1015 29.97 844 24.92 30.8 87.4 8 -7 19.5
17:50 1015 29.97 844 24.92 30.8 87.5 9 -6.1 21.1
17:55 1015 29.97 844 24.92 31.3 88.4 7 -7.6 18.3
18:00 1015 29.97 844 24.92 30.8 87.4 8 -7 19.4
18:05 1015 29.97 844 24.92 30.9 87.7 8 -6.3 20.7
18:10 1015 29.97 844 24.92 31 87.7 8 -6.5 20.2
18:15 1015 29.97 844 24.92 31 87.7 9 -5.5 22.1
18:20 1015 29.97 844 24.92 30.5 86.8 8 -7 19.4
18:25 1015 29.97 844 24.92 29.7 85.4 8 -7.1 19.2
18:30 1015 29.97 844 24.92 29.4 84.8 10 -5.2 22.7
18:35 1015 29.97 844 24.92 29.3 84.7 9 -5.9 21.3
18:40 1015 29.97 844 24.92 29.1 84.4 10 -5.2 22.6
18:45 1015 29.97 844 24.92 28.9 84.1 9 -7 19.4
18:50 1015 29.97 844 24.92 28.9 83.9 9 -6.5 20.2
18:55 1015 29.97 844 24.92 28.8 83.9 9 -6.8 19.7
19:00 1015 29.97 845 24.95 28.6 83.6 9 -7.5 18.6
19:05 1015 29.97 845 24.95 28.6 83.5 10 -5.8 21.6
19:10 1015 29.97 845 24.95 28.5 83.2 10 -6.2 20.9
19:15 1015 29.97 845 24.95 28.3 82.9 10 -6.5 20.3
19:20 1015 29.97 845 24.95 28.3 82.9 11 -5.3 22.4
19:25 1015 29.97 845 24.95 28 82.4 11 -5.4 22.3
19:30 1015 29.97 845 24.95 27.7 81.8 15 -1.2 29.8
19:35 1015 29.97 845 24.95 27.3 81.1 15 -0.9 30.3
19:40 1015 29.97 845 24.95 27.1 80.8 21 3 37.4
19:45 1015 29.97 845 24.95 26.6 79.9 23 4.3 39.7
19:50 1015 29.97 845 24.95 26 78.8 25 4.5 40.1
19:55 1015 29.97 845 24.95 25.2 77.3 29 5.9 42.6
20:00 1015 29.97 845 24.95 24.3 75.7 32 6.7 44.1
20:05 1015 29.97 845 24.95 23.8 74.9 31 6.1 43
20:10 1015 29.97 845 24.95 23.4 74 29 4.7 40.4
20:15 1015 29.97 845 24.95 22.4 72.3 33 5.3 41.6
20:20 1016 30 845 24.95 21.6 70.9 32 4.4 39.9
20:25 1016 30 845 24.95 20.6 69 34 4.2 39.6
20:30 1016 30 845 24.95 20.3 68.6 29 1.9 35.5
20:35 1016 30 845 24.95 20.6 69.1 23 -1.3 29.6
20:40 1016 30 845 24.95 21.3 70.3 22 -1.2 29.8
20:45 1016 30 845 24.95 21.2 70.1 21 -1.7 28.9
20:50 1016 30 845 24.95 21 69.7 20 -2.4 27.7
20:55 1016 30 845 24.95 21.2 70.1 21 -2.1 28.2
21:00 1016 30 845 24.95 21.2 70.2 21 -2 28.3
21:05 1016 30 845 24.95 20.9 69.5 20 -2.6 27.4
21:10 1016 30 845 24.95 20.9 69.6 21 -2.3 27.9
21:15 1016 30 845 24.95 20.6 69 21 -2.5 27.5
21:20 1016 30 845 24.95 20.4 68.7 21 -2.8 27
21:25 1016 30 845 24.95 20.2 68.4 22 -2.1 28.2
21:30 1016 30 845 24.95 20 67.9 21 -2.9 26.9
21:35 1016 30 845 24.95 20 67.9 21 -2.8 26.9
21:40 1016 30 845 24.95 19.9 67.8 20 -3.5 25.8
21:45 1016 30 845 24.95 20.2 68.4 20 -3.2 26.2
21:50 1016 30 845 24.95 20.4 68.7 20 -3.5 25.7
21:55 1016 30 845 24.95 20.9 69.6 19 -3.6 25.4
22:00 1016 30 845 24.95 21.7 71.1 19 -3 26.6
22:05 1016 30 845 24.95 22.2 71.9 20 -1.6 29.2
22:10 1016 30 845 24.95 22.5 72.5 22 -0.3 31.4
22:15 1016 30 845 24.95 22.6 72.7 23 0.4 32.8
22:20 1016 30 845 24.95 22.6 72.6 24 1.1 33.9
22:25 1016 30 845 24.95 22.7 72.9 24 1.6 34.9
22:30 1016 30 845 24.95 22.8 73 25 2.1 35.7
22:35 1016 30 845 24.95 22.8 73 26 2.4 36.3
22:40 1016 30 845 24.95 22.8 73 26 2.6 36.6
22:45 1016 30 845 24.95 22.7 72.8 27 3.1 37.6
22:50 1016 30 845 24.95 22.6 72.6 28 3.4 38.1
22:55 1016 30 845 24.95 22.5 72.5 29 3.6 38.5
23:00 1016 30 845 24.95 22.5 72.5 29 3.9 39
23:05 1016 30 845 24.95 22.5 72.4 30 4 39.2
23:10 1016 30 845 24.95 22.4 72.4 30 4.1 39.4
23:15 1016 30 845 24.95 22.4 72.4 30 4.3 39.7
23:20 1016 30 845 24.95 22.4 72.4 31 4.5 40.1
23:25 1016 30 845 24.95 22.4 72.3 31 4.6 40.2
23:30 1016 30 845 24.95 22.4 72.2 31 4.6 40.3
23:35 1016 30 845 24.95 22.3 72.1 31 4.6 40.3
23:40 1016 30 845 24.95 22.1 71.9 32 4.7 40.5
23:45 1016 30 845 24.95 22 71.7 32 4.7 40.5
23:50 1016 30 845 24.95 22 71.6 32 4.7 40.5
23:55 1016 30 845 24.95 21.9 71.5 32 4.7 40.4
24:00 1016 30 845 24.95 21.9 71.5 32 4.7 40.4